Time;durP1;ratioP1;P1;durP2;ratioP2;P2;SDS_P1;SDS_P2;PMS_P1;PMS_P2;Temp;Humidity;BMP_temperature;BMP_pressure;BME280_temperature;BME280_humidity;BME280_pressure;Samples;Min_cycle;Max_cycle;Signal;HPM_P1;HPM_P2
2022/01/01 00:00:34;;;;;;;47.97;28.63;;;;;;;;;;5106951;28;20028;-80
2022/01/01 00:03:00;;;;;;;47.60;27.70;;;10.80;99.90;;;;;;5103591;28;20050;-81
2022/01/01 00:05:27;;;;;;;45.17;27.13;;;;;;;;;;5106172;28;20077;-81
2022/01/01 00:07:52;;;;;;;46.10;27.05;;;10.90;99.90;;;;;;5110756;28;20040;-81
2022/01/01 00:10:20;;;;;;;48.67;27.35;;;;;;;;;;5097044;28;20028;-83
2022/01/01 00:12:47;;;;;;;45.28;27.25;;;10.80;99.90;;;;;;5101518;28;20027;-81
2022/01/01 00:15:14;;;;;;;44.90;26.77;;;10.90;99.90;;;;;;5101105;28;20059;-81
2022/01/01 00:17:40;;;;;;;40.28;23.95;;;;;;;;;;5107156;28;20032;-81
2022/01/01 00:20:09;;;;;;;47.20;26.48;;;10.80;99.90;;;;;;5103316;28;20020;-80
2022/01/01 00:22:38;;;;;;;42.10;25.50;;;10.80;99.90;;;;;;5099127;28;20103;-81
2022/01/01 00:25:04;;;;;;;40.97;24.00;;;11.60;99.90;;;;;;5101113;28;20043;-82
2022/01/01 00:27:30;;;;;;;41.90;25.92;;;10.80;99.90;;;;;;5102786;28;20039;-84
2022/01/01 00:29:56;;;;;;;38.53;22.45;;;11.20;99.90;;;;;;5104603;28;20024;-82
2022/01/01 00:32:21;;;;;;;36.45;21.08;;;11.30;99.90;;;;;;5099665;28;20040;-80
2022/01/01 00:34:47;;;;;;;31.08;19.40;;;10.90;99.90;;;;;;5104001;28;20054;-80
2022/01/01 00:37:12;;;;;;;32.95;18.77;;;12.40;99.90;;;;;;5100905;28;20024;-80
2022/01/01 00:39:38;;;;;;;32.30;19.67;;;11.50;99.90;;;;;;5095092;28;20111;-81
2022/01/01 00:42:04;;;;;;;34.53;20.35;;;11.80;99.90;;;;;;5088109;28;21144;-81
2022/01/01 00:44:32;;;;;;;35.58;20.98;;;10.80;99.90;;;;;;5083036;28;20092;-79
2022/01/01 00:46:58;;;;;;;33.45;19.35;;;10.80;99.90;;;;;;5088376;28;20439;-80
2022/01/01 00:49:24;;;;;;;33.50;20.20;;;12.90;99.90;;;;;;5106210;28;20028;-80
2022/01/01 00:51:49;;;;;;;30.10;18.50;;;10.80;99.90;;;;;;5085785;28;20087;-81
2022/01/01 00:54:15;;;;;;;34.30;19.88;;;11.50;99.90;;;;;;5093464;28;20028;-81
2022/01/01 00:56:40;;;;;;;33.92;20.85;;;12.70;99.90;;;;;;5085193;28;20077;-83
2022/01/01 00:59:06;;;;;;;37.67;20.20;;;11.80;99.90;;;;;;5087135;28;20024;-80
2022/01/01 01:01:32;;;;;;;30.10;18.52;;;10.80;99.90;;;;;;5090147;28;20016;-78
2022/01/01 01:03:58;;;;;;;31.42;19.45;;;10.80;99.90;;;;;;5093071;28;20032;-80
2022/01/01 01:06:23;;;;;;;29.75;17.35;;;10.80;99.90;;;;;;5088883;28;20373;-83
2022/01/01 01:08:51;;;;;;;27.75;16.77;;;12.00;99.90;;;;;;5094047;28;20028;-83
2022/01/01 01:11:17;;;;;;;27.80;15.90;;;12.00;99.90;;;;;;5090140;28;20552;-81
2022/01/01 01:13:45;;;;;;;27.13;16.80;;;12.10;99.90;;;;;;5087299;28;20054;-82
2022/01/01 01:16:11;;;;;;;27.15;15.45;;;11.90;99.90;;;;;;5088714;28;20023;-83
2022/01/01 01:18:37;;;;;;;24.23;14.52;;;10.80;99.90;;;;;;5082577;28;20131;-80
2022/01/01 01:21:03;;;;;;;27.45;15.82;;;11.50;99.90;;;;;;5087424;28;20044;-80
2022/01/01 01:23:29;;;;;;;27.15;15.45;;;12.40;99.90;;;;;;5086269;28;20031;-82
2022/01/01 01:25:56;;;;;;;24.70;15.23;;;10.80;99.90;;;;;;5087386;28;20112;-82
2022/01/01 01:28:22;;;;;;;35.33;17.17;;;10.80;99.90;;;;;;5092132;28;20077;-82
2022/01/01 01:30:48;;;;;;;20.65;13.75;;;11.00;99.90;;;;;;5089107;28;20032;-82
2022/01/01 01:33:14;;;;;;;27.80;15.80;;;;;;;;;;5089502;28;20020;-83
2022/01/01 01:35:40;;;;;;;27.92;13.98;;;;;;;;;;5088519;28;20031;-84
2022/01/01 01:38:06;;;;;;;24.55;14.10;;;;;;;;;;5090642;28;21050;-79
2022/01/01 01:40:32;;;;;;;27.17;14.23;;;;;;;;;;5103954;28;20023;-79
2022/01/01 01:42:58;;;;;;;26.00;14.05;;;;;;;;;;5091223;28;20095;-81
2022/01/01 01:45:28;;;;;;;26.58;15.02;;;;;;;;;;5089448;28;20080;-81
2022/01/01 01:47:54;;;;;;;23.67;13.25;;;;;;;;;;5087679;28;20485;-82
2022/01/01 01:50:20;;;;;;;27.98;14.95;;;;;;;;;;5090358;28;20102;-79
2022/01/01 01:52:49;;;;;;;26.63;14.75;;;;;;;;;;5090531;28;20511;-84
2022/01/01 01:55:15;;;;;;;26.30;15.73;;;;;;;;;;5089580;28;20039;-84
2022/01/01 01:57:42;;;;;;;25.40;14.80;;;;;;;;;;5091214;28;20059;-80
2022/01/01 02:00:36;;;;;;;28.38;16.40;;;;;;;;;;5090643;28;20016;-80
2022/01/01 02:02:59;;;;;;;26.58;15.05;;;;;;;;;;5090105;28;20084;-81
2022/01/01 02:05:25;;;;;;;21.52;12.95;;;;;;;;;;5089765;28;20043;-80
2022/01/01 02:07:52;;;;;;;22.42;12.80;;;;;;;;;;5088276;28;20032;-79
2022/01/01 02:10:18;;;;;;;22.02;13.15;;;;;;;;;;5088683;28;20038;-83
2022/01/01 02:12:50;;;;;;;23.67;13.48;;;;;;;;;;5095475;28;20093;-79
2022/01/01 02:15:59;;;;;;;23.30;14.32;;;10.70;99.90;;;;;;5091518;28;20020;-83
2022/01/01 02:18:25;;;;;;;23.50;14.02;;;10.70;99.90;;;;;;5087654;28;20366;-81
2022/01/01 02:20:51;;;;;;;23.30;13.57;;;;;;;;;;5085453;28;20038;-82
2022/01/01 02:23:17;;;;;;;23.65;13.98;;;10.70;99.90;;;;;;5088415;28;20063;-82
2022/01/01 02:25:44;;;;;;;24.27;13.63;;;;;;;;;;5093463;28;20028;-81
2022/01/01 02:28:13;;;;;;;22.15;12.63;;;;;;;;;;5089902;28;20062;-81
2022/01/01 02:30:39;;;;;;;19.33;12.13;;;;;;;;;;5088211;28;20032;-82
2022/01/01 02:33:06;;;;;;;22.38;12.75;;;;;;;;;;5091721;28;20024;-81
2022/01/01 02:35:31;;;;;;;21.67;11.80;;;;;;;;;;5086652;28;20051;-81
2022/01/01 02:37:57;;;;;;;21.58;12.57;;;;;;;;;;5087751;28;20048;-82
2022/01/01 02:40:23;;;;;;;18.45;11.43;;;;;;;;;;5087710;28;20024;-82
2022/01/01 02:42:51;;;;;;;22.90;13.32;;;10.60;99.90;;;;;;5093165;28;20549;-84
2022/01/01 02:45:16;;;;;;;24.52;13.75;;;13.40;99.90;;;;;;5094037;28;20504;-79
2022/01/01 02:47:43;;;;;;;20.13;12.32;;;11.90;99.90;;;;;;5089333;28;20025;-83
2022/01/01 02:50:09;;;;;;;20.65;12.50;;;10.50;99.90;;;;;;5088341;28;20032;-81
2022/01/01 02:52:35;;;;;;;20.80;12.77;;;10.50;99.90;;;;;;5090884;28;20110;-83
2022/01/01 02:55:01;;;;;;;20.38;12.80;;;13.00;99.90;;;;;;5090258;28;20036;-83
2022/01/01 02:57:27;;;;;;;21.85;12.85;;;12.20;99.90;;;;;;5087480;28;20024;-82
2022/01/01 02:59:56;;;;;;;20.08;12.15;;;10.30;99.90;;;;;;5081304;28;20371;-82
2022/01/01 03:02:21;;;;;;;17.27;12.43;;;11.60;99.90;;;;;;5086773;28;20037;-83
2022/01/01 03:04:47;;;;;;;19.40;12.30;;;10.30;99.90;;;;;;5092048;28;20038;-83
2022/01/01 03:07:13;;;;;;;19.13;11.90;;;11.10;99.90;;;;;;5086508;28;20041;-82
2022/01/01 03:09:39;;;;;;;16.83;11.50;;;;;;;;;;5093550;28;20118;-82
2022/01/01 03:12:09;;;;;;;18.38;10.85;;;10.30;99.90;;;;;;5091872;28;20032;-81
2022/01/01 03:14:35;;;;;;;19.10;11.60;;;10.30;99.90;;;;;;5096133;28;20039;-84
2022/01/01 03:17:02;;;;;;;18.20;11.55;;;11.30;99.90;;;;;;5090006;28;20131;-83
2022/01/01 03:19:27;;;;;;;18.65;11.93;;;10.10;99.90;;;;;;5086150;28;20085;-81
2022/01/01 03:21:53;;;;;;;19.45;11.80;;;;;;;;;;5085383;28;20024;-82
2022/01/01 03:24:19;;;;;;;21.13;11.52;;;10.10;99.90;;;;;;5089391;28;20486;-82
2022/01/01 03:26:45;;;;;;;18.73;12.27;;;;;;;;;;5088241;28;20035;-80
2022/01/01 03:29:11;;;;;;;20.27;12.65;;;10.10;99.90;;;;;;5086166;28;20039;-79
2022/01/01 03:31:36;;;;;;;20.35;12.60;;;10.00;99.90;;;;;;5087124;28;20397;-81
2022/01/01 03:34:03;;;;;;;19.08;12.30;;;;;;;;;;5085442;28;20051;-82
2022/01/01 03:36:29;;;;;;;23.75;13.60;;;10.10;99.90;;;;;;5087535;28;20568;-79
2022/01/01 03:38:59;;;;;;;23.77;13.10;;;11.50;99.90;;;;;;5090465;28;20032;-84
2022/01/01 03:41:26;;;;;;;22.58;13.32;;;;;;;;;;5088339;28;20100;-81
2022/01/01 03:43:52;;;;;;;21.90;13.05;;;10.10;99.90;;;;;;5089307;28;20276;-80
2022/01/01 03:46:17;;;;;;;21.58;13.68;;;12.50;99.90;;;;;;5085383;28;20486;-81
2022/01/01 03:48:46;;;;;;;21.30;13.13;;;13.60;99.90;;;;;;5086012;28;20028;-79
2022/01/01 03:51:12;;;;;;;22.75;13.73;;;10.20;99.90;;;;;;5090929;28;20039;-81
2022/01/01 03:53:38;;;;;;;24.77;13.85;;;9.90;99.90;;;;;;5089993;28;20028;-81
2022/01/01 03:56:03;;;;;;;21.45;13.60;;;10.10;99.90;;;;;;5089799;28;20493;-80
2022/01/01 03:58:29;;;;;;;24.65;13.73;;;10.10;99.90;;;;;;5089406;28;20024;-80
2022/01/01 04:00:55;;;;;;;21.25;14.00;;;;;;;;;;5090414;28;20024;-84
2022/01/01 04:03:21;;;;;;;23.73;13.32;;;10.20;99.90;;;;;;5090033;28;20037;-82
2022/01/01 04:05:47;;;;;;;22.95;13.55;;;10.20;99.90;;;;;;5086521;28;20029;-81
2022/01/01 04:08:13;;;;;;;22.65;13.25;;;14.00;99.90;;;;;;5088053;28;20031;-82
2022/01/01 04:10:40;;;;;;;22.05;13.35;;;10.20;99.90;;;;;;5088620;28;20062;-79
2022/01/01 04:13:08;;;;;;;19.42;13.02;;;10.20;99.90;;;;;;5087850;28;20043;-81
2022/01/01 04:15:38;;;;;;;21.30;12.35;;;10.30;99.90;;;;;;5095732;28;20024;-80
2022/01/01 04:18:10;;;;;;;19.58;12.27;;;10.30;99.90;;;;;;5093749;28;20481;-83
2022/01/01 04:20:44;;;;;;;22.70;12.57;;;10.20;99.90;;;;;;5093644;28;20044;-81
2022/01/01 04:23:10;;;;;;;22.08;13.18;;;10.20;99.90;;;;;;5091253;28;20105;-81
2022/01/01 04:25:37;;;;;;;21.13;12.52;;;10.20;99.90;;;;;;5091015;28;20058;-81
2022/01/01 04:28:03;;;;;;;21.45;13.13;;;10.20;99.90;;;;;;5094148;28;20039;-84
2022/01/01 04:30:29;;;;;;;19.10;11.98;;;;;;;;;;5090366;28;20032;-82
2022/01/01 04:32:58;;;;;;;33.30;19.40;;;10.20;99.90;;;;;;5090687;28;20110;-81
2022/01/01 04:35:25;;;;;;;17.83;10.90;;;;;;;;;;5087928;28;20127;-82
2022/01/01 04:37:51;;;;;;;17.08;11.13;;;;;;;;;;5091748;28;20031;-81
2022/01/01 04:40:17;;;;;;;18.95;11.43;;;;;;;;;;5086734;28;21639;-83
2022/01/01 04:42:43;;;;;;;18.77;12.23;;;10.30;99.90;;;;;;5095290;28;20042;-80
2022/01/01 04:45:09;;;;;;;16.75;11.13;;;11.20;99.90;;;;;;5091104;28;20968;-82
2022/01/01 04:47:35;;;;;;;17.88;11.15;;;;;;;;;;5088812;28;20028;-81
2022/01/01 04:50:03;;;;;;;15.32;10.50;;;;;;;;;;5094396;28;20031;-82
2022/01/01 04:52:32;;;;;;;17.02;10.93;;;10.00;99.90;;;;;;5085605;28;20159;-82
2022/01/01 04:54:58;;;;;;;17.27;10.23;;;;;;;;;;5091485;28;20032;-81
2022/01/01 04:57:29;;;;;;;17.92;9.93;;;;;;;;;;5092132;28;20059;-84
2022/01/01 04:59:56;;;;;;;17.60;10.00;;;;;;;;;;5091169;28;20448;-81
2022/01/01 05:02:22;;;;;;;17.55;10.48;;;10.10;99.90;;;;;;5091188;28;20036;-80
2022/01/01 05:04:48;;;;;;;18.05;10.27;;;;;;;;;;5091641;28;20046;-84
2022/01/01 05:07:14;;;;;;;17.77;10.50;;;;;;;;;;5091372;28;20036;-82
2022/01/01 05:09:40;;;;;;;17.13;9.60;;;;;;;;;;5087682;28;20032;-81
2022/01/01 05:12:06;;;;;;;18.15;10.15;;;;;;;;;;5086720;28;20052;-84
2022/01/01 05:14:34;;;;;;;17.85;9.40;;;;;;;;;;5091834;28;20124;-81
2022/01/01 05:17:00;;;;;;;19.10;9.55;;;;;;;;;;5088800;28;20029;-83
2022/01/01 05:19:29;;;;;;;20.58;9.50;;;;;;;;;;5085332;28;20504;-83
2022/01/01 05:21:55;;;;;;;17.52;9.68;;;10.10;99.90;;;;;;5081941;28;20107;-83
2022/01/01 05:24:21;;;;;;;20.35;10.18;;;10.20;99.90;;;;;;5093077;28;20020;-81
2022/01/01 05:26:50;;;;;;;21.05;10.40;;;12.90;99.90;;;;;;5089174;28;20044;-84
2022/01/01 05:29:16;;;;;;;16.42;9.60;;;12.30;99.90;;;;;;5091339;28;20544;-82
2022/01/01 05:31:41;;;;;;;18.63;9.85;;;11.20;99.90;;;;;;5096093;28;20059;-84
2022/01/01 05:34:07;;;;;;;17.88;9.65;;;10.50;99.90;;;;;;5089842;28;20536;-84
2022/01/01 05:36:32;;;;;;;18.95;10.10;;;9.90;99.90;;;;;;5093847;28;20056;-84
2022/01/01 05:38:58;;;;;;;20.92;9.90;;;11.30;99.90;;;;;;5085126;28;20032;-84
2022/01/01 05:41:23;;;;;;;21.13;10.13;;;12.00;99.90;;;;;;5088668;28;20466;-82
2022/01/01 05:43:49;;;;;;;19.60;10.15;;;10.30;99.90;;;;;;5089534;28;20028;-82
2022/01/01 05:46:15;;;;;;;17.77;8.95;;;11.30;99.90;;;;;;5090355;28;20102;-82
2022/01/01 05:48:41;;;;;;;24.40;9.80;;;;;;;;;;5092984;28;20464;-84
2022/01/01 05:51:08;;;;;;;18.15;9.15;;;;;;;;;;5089203;28;20032;-85
2022/01/01 05:53:34;;;;;;;23.60;10.43;;;9.90;99.90;;;;;;5090873;28;20073;-83
2022/01/01 05:56:00;;;;;;;20.67;9.45;;;;;;;;;;5092406;28;20271;-82
2022/01/01 05:58:26;;;;;;;16.63;8.80;;;;;;;;;;5088295;28;20040;-82
2022/01/01 06:00:51;;;;;;;19.40;9.20;;;;;;;;;;5093571;28;20028;-82
2022/01/01 06:03:18;;;;;;;16.48;8.75;;;;;;;;;;5085357;28;20020;-85
2022/01/01 06:05:44;;;;;;;18.80;9.20;;;;;;;;;;5089960;28;20120;-84
2022/01/01 06:08:10;;;;;;;15.60;8.32;;;10.00;99.90;;;;;;5089497;28;20024;-85
2022/01/01 06:10:37;;;;;;;16.45;8.75;;;;;;;;;;5089955;28;20968;-84
2022/01/01 06:13:06;;;;;;;14.88;7.90;;;10.00;99.90;;;;;;5090227;28;20486;-80
2022/01/01 06:15:32;;;;;;;17.25;8.75;;;10.00;99.90;;;;;;5088084;28;20035;-85
2022/01/01 06:17:58;;;;;;;17.60;8.57;;;;;;;;;;5090072;28;20036;-82
2022/01/01 06:20:24;;;;;;;15.70;7.90;;;;;;;;;;5092196;28;20054;-84
2022/01/01 06:22:49;;;;;;;14.23;8.32;;;;;;;;;;5088373;28;20111;-83
2022/01/01 06:25:16;;;;;;;14.45;7.70;;;;;;;;;;5090505;28;20020;-81
2022/01/01 06:27:42;;;;;;;17.85;7.97;;;;;;;;;;5086401;28;20051;-82
2022/01/01 06:30:08;;;;;;;13.75;7.43;;;;;;;;;;5089220;28;20036;-83
2022/01/01 06:32:34;;;;;;;15.23;7.38;;;;;;;;;;5094613;28;20114;-84
2022/01/01 06:35:00;;;;;;;19.05;8.25;;;;;;;;;;5086594;28;20036;-82
2022/01/01 06:37:26;;;;;;;12.35;7.18;;;;;;;;;;5093569;28;20035;-83
2022/01/01 06:39:52;;;;;;;13.68;7.95;;;;;;;;;;5094721;28;20062;-82
2022/01/01 06:42:18;;;;;;;15.75;8.27;;;10.20;99.90;;;;;;5091523;28;20032;-85
2022/01/01 06:44:44;;;;;;;13.13;7.50;;;;;;;;;;5086016;28;20032;-84
2022/01/01 06:47:10;;;;;;;13.45;6.93;;;;;;;;;;5091537;28;20031;-83
2022/01/01 06:49:36;;;;;;;12.18;7.43;;;;;;;;;;5092521;28;20031;-81
2022/01/01 06:52:03;;;;;;;14.57;7.00;;;;;;;;;;5091250;28;20028;-83
2022/01/01 06:54:30;;;;;;;12.88;7.22;;;;;;;;;;5092885;28;20024;-81
2022/01/01 06:56:56;;;;;;;9.82;6.20;;;;;;;;;;5090400;28;20036;-83
2022/01/01 06:59:22;;;;;;;13.65;7.05;;;;;;;;;;5095260;28;20040;-82
2022/01/01 07:01:52;;;;;;;12.02;6.78;;;;;;;;;;5087076;28;20020;-86
2022/01/01 07:04:18;;;;;;;10.77;6.40;;;;;;;;;;5088454;28;20027;-82
2022/01/01 07:06:44;;;;;;;11.43;6.18;;;;;;;;;;5097078;28;20103;-83
2022/01/01 07:09:11;;;;;;;12.38;6.95;;;;;;;;;;5081808;28;20019;-82
2022/01/01 07:11:37;;;;;;;14.60;6.60;;;;;;;;;;5084269;28;20054;-83
2022/01/01 07:14:03;;;;;;;9.82;6.00;;;;;;;;;;5087123;28;20489;-83
2022/01/01 07:16:32;;;;;;;14.02;6.32;;;;;;;;;;5088337;28;20042;-84
2022/01/01 07:18:58;;;;;;;15.10;6.28;;;;;;;;;;5086162;28;20434;-83
2022/01/01 07:21:24;;;;;;;11.23;6.07;;;;;;;;;;5086611;28;20024;-81
2022/01/01 07:23:53;;;;;;;11.18;6.30;;;;;;;;;;5087745;28;20087;-82
2022/01/01 07:26:19;;;;;;;13.95;7.22;;;;;;;;;;5087520;28;20504;-83
2022/01/01 07:28:48;;;;;;;11.82;6.53;;;;;;;;;;5085364;28;20035;-84
2022/01/01 07:31:14;;;;;;;10.48;5.63;;;;;;;;;;5082382;28;20024;-83
2022/01/01 07:33:39;;;;;;;11.18;6.60;;;;;;;;;;5085570;28;20110;-84
2022/01/01 07:36:06;;;;;;;9.38;5.80;;;;;;;;;;5092478;28;20032;-82
2022/01/01 07:38:32;;;;;;;8.50;5.50;;;;;;;;;;5089625;28;20020;-83
2022/01/01 07:40:58;;;;;;;10.15;6.15;;;;;;;;;;5085835;28;20394;-82
2022/01/01 07:43:24;;;;;;;8.95;5.45;;;;;;;;;;5088736;28;20020;-81
2022/01/01 07:45:53;;;;;;;9.10;6.45;;;;;;;;;;5089061;28;20170;-86
2022/01/01 07:48:19;;;;;;;10.02;6.15;;;10.20;99.90;;;;;;5090928;28;20546;-80
2022/01/01 07:50:45;;;;;;;10.77;6.07;;;;;;;;;;5092424;28;20081;-82
2022/01/01 07:53:10;;;;;;;10.93;6.00;;;10.20;99.90;;;;;;5093325;28;20028;-83
2022/01/01 07:55:36;;;;;;;11.05;5.90;;;10.10;99.90;;;;;;5093874;28;20113;-82
2022/01/01 07:58:02;;;;;;;10.15;6.38;;;;;;;;;;5087861;28;20047;-82
2022/01/01 08:00:28;;;;;;;9.35;5.78;;;10.20;99.90;;;;;;5086986;28;20036;-83
2022/01/01 08:02:53;;;;;;;9.93;6.15;;;10.20;99.90;;;;;;5089706;28;20036;-83
2022/01/01 08:05:22;;;;;;;9.50;6.07;;;10.20;99.90;;;;;;5089831;28;20028;-83
2022/01/01 08:07:47;;;;;;;10.02;5.90;;;10.20;99.90;;;;;;5090072;28;20029;-82
2022/01/01 08:10:13;;;;;;;9.18;5.82;;;10.20;99.90;;;;;;5085419;28;20036;-81
2022/01/01 08:12:41;;;;;;;10.30;6.20;;;;;;;;;;5086930;28;20059;-82
2022/01/01 08:15:07;;;;;;;9.60;5.18;;;;;;;;;;5092047;28;20081;-82
2022/01/01 08:17:33;;;;;;;10.05;5.40;;;10.20;99.90;;;;;;5085693;28;20065;-83
2022/01/01 08:19:59;;;;;;;9.25;5.70;;;;;;;;;;5087637;28;20104;-83
2022/01/01 08:22:25;;;;;;;9.02;5.57;;;;;;;;;;5090884;28;20024;-82
2022/01/01 08:24:51;;;;;;;12.32;6.10;;;;;;;;;;5088485;28;20555;-82
2022/01/01 08:27:17;;;;;;;9.93;5.85;;;10.40;99.90;;;;;;5092671;28;20028;-80
2022/01/01 08:29:43;;;;;;;8.75;5.70;;;;;;;;;;5089446;28;20477;-79
2022/01/01 08:32:09;;;;;;;10.23;6.43;;;;;;;;;;5090637;28;20476;-81
2022/01/01 08:34:35;;;;;;;11.30;6.35;;;;;;;;;;5092309;28;20084;-84
2022/01/01 08:37:01;;;;;;;10.07;6.30;;;10.50;99.90;;;;;;5089169;28;20149;-83
2022/01/01 08:39:27;;;;;;;12.05;6.28;;;;;;;;;;5083181;28;20035;-81
2022/01/01 08:41:53;;;;;;;13.93;7.25;;;;;;;;;;5088810;28;20028;-82
2022/01/01 08:44:19;;;;;;;8.48;5.40;;;;;;;;;;5086587;28;20020;-82
2022/01/01 08:46:45;;;;;;;10.18;5.72;;;;;;;;;;5093163;28;20115;-82
2022/01/01 08:49:11;;;;;;;10.85;5.75;;;10.70;99.90;;;;;;5089948;28;20016;-85
2022/01/01 08:51:40;;;;;;;9.27;6.22;;;10.70;99.90;;;;;;5087687;28;20029;-84
2022/01/01 08:54:09;;;;;;;9.82;6.07;;;;;;;;;;5093377;28;20627;-81
2022/01/01 08:56:35;;;;;;;10.90;5.47;;;10.80;99.90;;;;;;5095877;28;20020;-83
2022/01/01 08:59:01;;;;;;;8.80;5.82;;;;;;;;;;5089338;28;20032;-83
2022/01/01 09:01:27;;;;;;;11.25;6.40;;;10.80;99.90;;;;;;5087664;28;20486;-84
2022/01/01 09:03:54;;;;;;;9.10;5.45;;;10.80;99.90;;;;;;5089497;28;20042;-85
2022/01/01 09:06:23;;;;;;;12.50;5.72;;;10.90;99.90;;;;;;5092979;28;20115;-83
2022/01/01 09:08:52;;;;;;;8.52;5.30;;;10.80;99.90;;;;;;5092784;28;20036;-82
2022/01/01 09:11:18;;;;;;;9.55;5.57;;;;;;;;;;5096556;28;20024;-80
2022/01/01 09:13:44;;;;;;;8.63;5.20;;;;;;;;;;5099178;28;20036;-84
2022/01/01 09:16:15;;;;;;;7.72;5.18;;;11.10;99.90;;;;;;5094533;28;20036;-85
2022/01/01 09:18:44;;;;;;;7.93;5.10;;;11.10;99.90;;;;;;5086330;28;20035;-82
2022/01/01 09:21:13;;;;;;;9.02;4.65;;;11.10;99.90;;;;;;5098092;28;20548;-82
2022/01/01 09:23:39;;;;;;;10.45;4.60;;;11.60;99.90;;;;;;5096288;28;20028;-84
2022/01/01 09:26:06;;;;;;;9.20;4.53;;;;;;;;;;5093737;28;20043;-84
2022/01/01 09:28:33;;;;;;;10.88;5.32;;;11.20;99.90;;;;;;5092962;28;20067;-81
2022/01/01 09:31:00;;;;;;;8.75;4.47;;;11.40;99.90;;;;;;5089183;28;20024;-82
2022/01/01 09:33:29;;;;;;;8.70;4.82;;;;;;;;;;5090949;28;20043;-80
2022/01/01 09:35:56;;;;;;;11.55;4.93;;;11.40;99.90;;;;;;5101485;28;20477;-83
2022/01/01 09:38:22;;;;;;;10.48;5.35;;;11.40;99.90;;;;;;5097625;28;20028;-83
2022/01/01 09:40:48;;;;;;;8.13;5.20;;;;;;;;;;5092995;28;20094;-82
2022/01/01 09:43:14;;;;;;;8.32;4.32;;;;;;;;;;5098247;28;20025;-83
2022/01/01 09:45:43;;;;;;;9.57;4.85;;;;;;;;;;5100483;28;20285;-83
2022/01/01 09:48:09;;;;;;;9.20;5.00;;;;;;;;;;5093900;28;20119;-84
2022/01/01 09:50:36;;;;;;;8.95;4.72;;;;;;;;;;5096528;28;20048;-81
2022/01/01 09:53:02;;;;;;;8.68;4.57;;;11.30;99.90;;;;;;5091212;28;20038;-83
2022/01/01 09:55:28;;;;;;;10.15;4.72;;;11.10;99.90;;;;;;5097095;28;20032;-82
2022/01/01 09:57:53;;;;;;;8.75;4.80;;;11.30;99.90;;;;;;5088567;28;20476;-82
2022/01/01 10:00:19;;;;;;;8.55;4.78;;;11.40;99.90;;;;;;5094150;28;20028;-81
2022/01/01 10:02:45;;;;;;;8.70;4.75;;;;;;;;;;5090991;28;20060;-82
2022/01/01 10:05:11;;;;;;;9.43;4.75;;;11.60;99.90;;;;;;5093325;28;20111;-81
2022/01/01 10:07:37;;;;;;;8.07;4.57;;;;;;;;;;5090546;28;20044;-83
2022/01/01 10:10:23;;;;;;;9.07;5.00;;;11.60;99.90;;;;;;5087843;28;20032;-81
2022/01/01 10:12:49;;;;;;;6.70;4.22;;;11.60;99.90;;;;;;5087611;28;20084;-80
2022/01/01 10:15:15;;;;;;;9.15;4.50;;;11.70;99.90;;;;;;5084540;28;20020;-81
2022/01/01 10:17:42;;;;;;;7.45;4.45;;;11.60;99.90;;;;;;5092695;28;20024;-83
2022/01/01 10:20:08;;;;;;;9.52;4.93;;;11.70;99.90;;;;;;5095588;28;20032;-81
2022/01/01 10:22:35;;;;;;;10.63;5.18;;;11.70;99.90;;;;;;5085105;28;20115;-85
2022/01/01 10:28:04;;;;;;;7.78;5.00;;;11.80;99.90;;;;;;5091074;28;20043;-81
2022/01/01 10:30:30;;;;;;;7.80;4.70;;;11.80;99.90;;;;;;5089881;28;20032;-84
2022/01/01 10:33:09;;;;;;;8.43;4.25;;;11.80;99.90;;;;;;5083416;28;20035;-81
2022/01/01 10:35:59;;;;;;;8.48;4.78;;;11.90;99.90;;;;;;5081597;28;20114;-81
2022/01/01 10:38:27;;;;;;;7.55;4.05;;;11.90;99.90;;;;;;5099236;28;20035;-79
2022/01/01 10:41:08;;;;;;;7.43;4.60;;;11.90;99.90;;;;;;5087705;28;20477;-79
2022/01/01 10:43:39;;;;;;;9.10;5.20;;;12.00;99.90;;;;;;5078779;28;20042;-82
2022/01/01 10:46:06;;;;;;;11.30;4.38;;;12.00;99.90;;;;;;5074877;28;20054;-80
2022/01/01 10:51:08;;;;;;;7.97;4.65;;;12.10;99.90;;;;;;5077911;28;20020;-79
2022/01/01 10:53:34;;;;;;;;;;;12.10;99.90;;;;;;5084527;28;20389;-79
2022/01/01 10:56:03;;;;;;;8.23;4.93;;;12.10;99.90;;;;;;5079611;28;19908;-80
2022/01/01 10:58:32;;;;;;;7.38;4.32;;;12.10;99.90;;;;;;5080166;28;20048;-78
2022/01/01 11:01:07;;;;;;;9.57;4.60;;;13.60;99.90;;;;;;5081535;28;20028;-78
2022/01/01 11:03:45;;;;;;;10.23;4.53;;;11.80;99.90;;;;;;5076564;28;20020;-79
2022/01/01 11:06:13;;;;;;;8.60;4.68;;;12.30;99.90;;;;;;5078175;28;20048;-80
2022/01/01 11:08:44;;;;;;;10.05;4.78;;;12.40;99.90;;;;;;5078937;28;20031;-81
2022/01/01 11:11:10;;;;;;;10.40;5.00;;;12.30;99.90;;;;;;5092131;28;20044;-80
2022/01/01 11:13:37;;;;;;;7.03;4.25;;;12.40;99.90;;;;;;5081687;28;20100;-80
2022/01/01 11:16:04;;;;;;;11.50;5.00;;;12.50;99.90;;;;;;5084407;28;20386;-79
2022/01/01 11:18:31;;;;;;;6.53;4.57;;;12.50;99.90;;;;;;5085246;28;20039;-79
2022/01/01 11:20:59;;;;;;;7.13;4.43;;;12.50;99.90;;;;;;5082007;28;20017;-78
2022/01/01 11:23:25;;;;;;;9.35;5.15;;;12.60;99.90;;;;;;5088233;28;20136;-81
2022/01/01 11:25:56;;;;;;;6.95;4.38;;;12.60;99.90;;;;;;5083262;28;20175;-80
2022/01/01 11:28:22;;;;;;;7.40;4.63;;;13.70;99.90;;;;;;5078338;28;20039;-79
2022/01/01 11:31:03;;;;;;;8.38;4.35;;;12.70;99.90;;;;;;5079169;28;20812;-77
2022/01/01 11:33:40;;;;;;;7.72;5.00;;;12.70;99.90;;;;;;5077225;28;20028;-80
2022/01/01 11:36:07;;;;;;;10.35;4.78;;;12.70;99.90;;;;;;5079911;28;20036;-81
2022/01/01 11:38:37;;;;;;;7.53;4.03;;;12.70;99.90;;;;;;5082512;28;20035;-79
2022/01/01 11:41:03;;;;;;;10.23;4.25;;;12.70;99.90;;;;;;5085841;28;20055;-79
2022/01/01 11:43:47;;;;;;;7.43;4.60;;;12.70;99.90;;;;;;5081927;28;20028;-81
2022/01/01 11:46:20;;;;;;;9.65;4.53;;;12.70;99.90;;;;;;5078586;28;20055;-79
2022/01/01 11:48:55;;;;;;;11.00;5.13;;;12.70;99.90;;;;;;5075093;28;20029;-80
2022/01/01 11:51:22;;;;;;;7.75;4.75;;;12.80;99.90;;;;;;5071750;28;20032;-82
2022/01/01 11:54:10;;;;;;;6.47;4.40;;;12.70;99.90;;;;;;5074538;28;20024;-77
2022/01/01 11:56:52;;;;;;;6.60;3.88;;;12.90;99.90;;;;;;5074382;28;20123;-81
2022/01/01 11:59:28;;;;;;;6.57;4.00;;;12.90;99.90;;;;;;5080337;28;20137;-80
2022/01/01 12:02:06;;;;;;;9.30;4.30;;;13.10;99.90;;;;;;5078803;28;20024;-82
2022/01/01 12:04:32;;;;;;;8.82;3.92;;;;;;;;;;5072482;28;20032;-81
2022/01/01 12:07:00;;;;;;;7.43;4.47;;;13.10;99.90;;;;;;5074571;28;20036;-80
2022/01/01 12:09:26;;;;;;;13.10;4.50;;;13.10;99.90;;;;;;5079416;28;20024;-79
2022/01/01 12:11:58;;;;;;;8.10;4.35;;;13.10;99.90;;;;;;5083534;28;20028;-80
2022/01/01 12:14:31;;;;;;;7.65;4.10;;;13.10;99.90;;;;;;5076416;28;20060;-80
2022/01/01 12:16:56;;;;;;;7.50;4.20;;;13.10;99.90;;;;;;5076468;28;20032;-79
2022/01/01 12:19:24;;;;;;;6.57;3.88;;;13.10;99.90;;;;;;5072953;28;20451;-81
2022/01/01 12:22:09;;;;;;;7.53;3.95;;;13.20;99.90;;;;;;5082998;28;20017;-76
2022/01/01 12:24:39;;;;;;;17.42;11.07;;;13.20;99.90;;;;;;5077908;28;20024;-82
2022/01/01 12:27:12;;;;;;;7.38;3.45;;;13.10;99.90;;;;;;5075855;28;20036;-80
2022/01/01 12:29:38;;;;;;;7.95;3.55;;;13.20;99.90;;;;;;5077328;28;20142;-80
2022/01/01 12:32:07;;;;;;;6.03;3.35;;;13.20;99.90;;;;;;5084949;28;20111;-82
2022/01/01 12:34:34;;;;;;;5.60;2.90;;;13.20;99.90;;;;;;5071600;28;20021;-79
2022/01/01 12:37:07;;;;;;;5.22;2.88;;;13.20;99.90;;;;;;5080469;28;20030;-79
2022/01/01 12:40:12;;;;;;;5.70;3.08;;;13.20;99.90;;;;;;5088954;28;20451;-79
2022/01/01 12:42:44;;;;;;;8.25;2.95;;;13.20;99.90;;;;;;5018519;28;20347;-79
2022/01/01 12:45:10;;;;;;;5.10;2.72;;;13.20;99.90;;;;;;5027355;28;20645;-80
2022/01/01 12:47:37;;;;;;;5.47;2.97;;;13.20;99.90;;;;;;5036883;28;20048;-79
2022/01/01 12:50:05;;;;;;;6.22;2.78;;;13.20;99.90;;;;;;5076583;28;20119;-80
2022/01/01 12:52:31;;;;;;;6.10;3.00;;;13.20;99.90;;;;;;5093097;28;20043;-79
2022/01/01 12:54:58;;;;;;;5.63;3.58;;;13.30;99.90;;;;;;5075841;28;20104;-82
2022/01/01 12:57:25;;;;;;;5.85;2.60;;;13.20;99.90;;;;;;5084806;28;20035;-80
2022/01/01 12:59:50;;;;;;;5.85;2.83;;;13.30;99.90;;;;;;5086783;28;20097;-81
2022/01/01 13:02:16;;;;;;;6.22;3.00;;;13.30;99.90;;;;;;5079828;28;20020;-81
2022/01/01 13:04:43;;;;;;;6.13;3.13;;;;;;;;;;5082989;28;20032;-82
2022/01/01 13:07:09;;;;;;;6.72;3.10;;;;;;;;;;5082862;28;20052;-83
2022/01/01 13:09:36;;;;;;;7.35;2.63;;;13.30;99.90;;;;;;5088148;28;20224;-81
2022/01/01 13:12:06;;;;;;;5.95;3.22;;;13.20;99.90;;;;;;5083054;28;20553;-82
2022/01/01 13:14:34;;;;;;;9.48;3.80;;;13.20;99.90;;;;;;5082609;28;20204;-83
2022/01/01 13:17:03;;;;;;;6.03;2.65;;;13.30;99.90;;;;;;5080066;28;20025;-82
2022/01/01 13:19:33;;;;;;;4.15;2.50;;;13.30;99.90;;;;;;5081301;28;20083;-86
2022/01/01 13:21:59;;;;;;;5.65;2.60;;;13.40;99.90;;;;;;5084070;28;20031;-81